Time;durP1;ratioP1;P1;durP2;ratioP2;P2;SDS_P1;SDS_P2;PMS_P1;PMS_P2;Temp;Humidity;BMP_temperature;BMP_pressure;BME280_temperature;BME280_humidity;BME280_pressure;Samples;Min_cycle;Max_cycle;Signal;HPM_P1;HPM_P2
2022/05/28 00:01:26;;;;;;;5.85;4.05;;;;;;;20.24;nan;-24380.00;5071455;28;20257;-56
2022/05/28 00:03:53;;;;;;;7.22;4.03;;;;;;;20.01;nan;-24373.72;5071774;28;20193;-56
2022/05/28 00:06:21;;;;;;;9.93;4.57;;;;;;;20.39;nan;-24384.16;5071996;28;20166;-56
2022/05/28 00:08:48;;;;;;;7.65;4.28;;;;;;;20.33;nan;-24382.50;5072115;28;20647;-56
2022/05/28 00:11:25;;;;;;;8.45;4.55;;;;;;;20.47;nan;-24386.25;5070718;28;20190;-55
2022/05/28 00:13:52;;;;;;;7.40;3.97;;;;;;;20.38;nan;-24383.88;5071938;28;20197;-56
2022/05/28 00:16:18;;;;;;;6.45;4.03;;;;;;;20.33;nan;-24382.50;5072279;28;20170;-56
2022/05/28 00:18:44;;;;;;;6.60;4.35;;;;;;;19.53;nan;-24360.53;5071861;28;20366;-56
2022/05/28 00:21:12;;;;;;;6.85;4.25;;;;;;;20.29;nan;-24381.50;5071985;28;20173;-56
2022/05/28 00:23:39;;;;;;;10.07;4.25;;;;;;;20.13;nan;-24376.94;5071893;28;20198;-56
2022/05/28 00:26:06;;;;;;;6.57;4.35;;;;;;;20.25;nan;-24380.41;5071943;28;20231;-55
2022/05/28 00:28:33;;;;;;;7.18;4.30;;;;;;;20.03;nan;-24374.16;5071969;28;20254;-56
2022/05/28 00:30:59;;;;;;;8.32;4.35;;;;;;;20.21;nan;-24379.16;5071603;28;20200;-56
2022/05/28 00:33:25;;;;;;;7.72;4.03;;;;;;;20.06;nan;-24375.00;5076829;28;20637;-56
2022/05/28 00:35:51;;;;;;;11.45;4.88;;;;;;;19.82;nan;-24368.47;5075336;28;20192;-56
2022/05/28 00:38:17;;;;;;;6.68;4.15;;;;;;;19.83;nan;-24368.88;5072055;28;20235;-56
2022/05/28 00:40:48;;;;;;;6.75;4.30;;;;;;;20.09;nan;-24375.97;5074501;28;20225;-56
2022/05/28 00:43:14;;;;;;;12.95;4.55;;;;;;;20.04;nan;-24374.44;5071742;28;20198;-56
2022/05/28 00:45:40;;;;;;;6.65;4.20;;;;;;;19.92;nan;-24371.09;5071586;28;20189;-57
2022/05/28 00:48:06;;;;;;;6.82;4.00;;;;;;;20.00;nan;-24373.31;5073343;28;20268;-56
2022/05/28 00:50:34;;;;;;;6.53;4.32;;;;;;;19.88;nan;-24370.13;5073589;28;20211;-56
2022/05/28 00:53:01;;;;;;;8.75;4.22;;;;;;;19.84;nan;-24369.16;5075038;28;20189;-56
2022/05/28 00:55:30;;;;;;;6.68;4.20;;;;;;;19.68;nan;-24364.56;5071322;28;20220;-56
2022/05/28 00:57:55;;;;;;;8.82;4.72;;;;;;;19.66;nan;-24364.00;5072453;28;20693;-56
2022/05/28 01:00:22;;;;;;;7.05;4.20;;;;;;;19.69;nan;-24364.84;5074649;28;20178;-56
2022/05/28 01:03:27;;;;;;;8.13;4.28;;;;;;;19.64;nan;-24363.44;5070786;28;20189;-56
2022/05/28 01:06:09;;;;;;;7.38;4.07;;;;;;;19.53;nan;-24360.53;5071478;28;20177;-54
2022/05/28 01:08:52;;;;;;;8.35;4.38;;;;;;;19.23;nan;-24352.31;5074065;28;20188;-54
2022/05/28 01:11:27;;;;;;;8.20;4.43;;;;;;;19.40;nan;-24357.06;5069837;28;20576;-55
2022/05/28 01:14:14;;;;;;;10.20;4.45;;;;;;;19.41;nan;-24357.19;5071422;28;20196;-56
2022/05/28 01:16:50;;;;;;;8.07;4.68;;;;;;;19.30;nan;-24354.28;5076294;28;20672;-55
2022/05/28 01:19:34;;;;;;;6.78;4.20;;;;;;;19.48;nan;-24359.13;5075264;28;20169;-55
2022/05/28 01:22:02;;;;;;;7.53;4.13;;;;;;;19.49;nan;-24359.28;5072162;28;20512;-55
2022/05/28 01:24:37;;;;;;;8.00;4.30;;;;;;;19.49;nan;-24359.28;5078977;28;20190;-55
2022/05/28 01:27:08;;;;;;;6.65;4.20;;;;;;;19.47;nan;-24358.72;5073837;28;20178;-55
2022/05/28 01:29:56;;;;;;;8.32;4.50;;;;;;;19.45;nan;-24358.16;5078698;28;20655;-55
2022/05/28 01:32:25;;;;;;;5.90;4.20;;;;;;;19.51;nan;-24359.84;5075302;28;20177;-55
2022/05/28 01:34:51;;;;;;;8.25;4.50;;;;;;;;;;5076541;28;20177;-55
2022/05/28 01:37:18;;;;;;;6.20;4.18;;;;;;;19.30;nan;-24354.28;5074956;28;20545;-55
2022/05/28 01:39:49;;;;;;;9.10;4.57;;;;;;;19.53;nan;-24360.38;5074997;28;20170;-58
2022/05/28 01:42:16;;;;;;;9.80;4.18;;;;;;;19.29;nan;-24353.84;5075153;28;20208;-55
2022/05/28 01:44:44;;;;;;;9.68;4.30;;;;;;;19.39;nan;-24356.63;5074311;28;20178;-55
2022/05/28 01:47:13;;;;;;;16.13;4.63;;;;;;;19.33;nan;-24355.09;5074682;28;20166;-55
2022/05/28 01:49:39;;;;;;;6.23;4.30;;;;;;;19.05;nan;-24347.31;5074482;28;20178;-55
2022/05/28 01:52:07;;;;;;;8.45;4.68;;;;;;;19.24;nan;-24352.59;5072806;28;20185;-56
2022/05/28 01:54:43;;;;;;;7.55;4.43;;;;;;;19.44;nan;-24358.03;5076839;28;20218;-55
2022/05/28 01:57:09;;;;;;;11.13;5.32;;;;;;;19.37;nan;-24356.06;5073833;28;20279;-56
2022/05/28 01:59:35;;;;;;;7.43;4.47;;;;;;;19.40;nan;-24356.91;5074335;28;20190;-55
2022/05/28 02:02:06;;;;;;;10.73;5.43;;;;;;;19.23;nan;-24352.31;5076025;28;20215;-56
2022/05/28 02:04:34;;;;;;;7.35;5.05;;;;;;;19.11;nan;-24348.97;5075896;28;20204;-55
2022/05/28 02:07:02;;;;;;;8.95;5.47;;;;;;;19.25;nan;-24352.75;5075841;28;20187;-55
2022/05/28 02:09:46;;;;;;;7.82;5.30;;;;;;;19.07;nan;-24347.88;5075020;28;20228;-55
2022/05/28 02:12:40;;;;;;;9.82;5.63;;;;;;;19.46;nan;-24358.44;5074491;28;20177;-56
2022/05/28 02:15:17;;;;;;;10.55;6.03;;;;;;;19.27;nan;-24353.44;5076372;28;20178;-55
2022/05/28 02:17:50;;;;;;;10.40;5.45;;;;;;;19.09;nan;-24348.44;5074858;28;20217;-56
2022/05/28 02:20:36;;;;;;;10.52;5.97;;;;;;;19.23;nan;-24352.19;5076955;28;20265;-55
2022/05/28 02:23:11;;;;;;;9.50;5.53;;;;;;;19.16;nan;-24350.22;5078594;28;20188;-55
2022/05/28 02:25:45;;;;;;;9.43;5.82;;;;;;;19.05;nan;-24347.31;5084025;28;20742;-55
2022/05/28 02:28:17;;;;;;;11.23;6.38;;;;;;;18.81;nan;-24340.63;5074110;28;20694;-58
2022/05/28 02:30:53;;;;;;;10.50;5.75;;;;;;;19.09;nan;-24348.44;5074608;28;20209;-55
2022/05/28 02:33:19;;;;;;;8.85;5.35;;;;;;;19.20;nan;-24351.47;5076516;28;20185;-56
2022/05/28 02:35:45;;;;;;;8.80;5.28;;;;;;;18.92;nan;-24343.69;5075432;28;20288;-55
2022/05/28 02:38:15;;;;;;;11.82;5.15;;;;;;;19.00;nan;-24345.78;5077117;28;20708;-56
2022/05/28 02:40:41;;;;;;;10.40;5.25;;;;;;;18.86;nan;-24342.16;5077281;28;20188;-57
2022/05/28 02:43:06;;;;;;;9.32;5.80;;;;;;;18.71;nan;-24338.00;5066858;28;20601;-57
2022/05/28 02:45:32;;;;;;;8.35;5.18;;;;;;;18.94;nan;-24344.38;5076340;28;20213;-56
2022/05/28 02:47:58;;;;;;;8.82;5.63;;;;;;;18.84;nan;-24341.47;5077862;28;20652;-55
2022/05/28 02:50:27;;;;;;;10.75;5.95;;;;;;;18.76;nan;-24339.38;5075670;28;20625;-54
2022/05/28 02:52:53;;;;;;;8.70;6.25;;;;;;;18.88;nan;-24342.56;5077746;28;20177;-56
2022/05/28 02:55:19;;;;;;;8.50;5.68;;;;;;;18.69;nan;-24337.28;5076423;28;20960;-57
2022/05/28 02:57:44;;;;;;;10.25;5.53;;;;;;;18.66;nan;-24336.44;5078857;28;20193;-55
2022/05/28 03:00:13;;;;;;;8.95;5.50;;;;;;;18.44;nan;-24330.47;5079314;28;20186;-55
2022/05/28 03:02:38;;;;;;;9.13;6.00;;;;;;;18.10;nan;-24321.25;5080648;28;20206;-56
2022/05/28 03:05:04;;;;;;;13.63;6.40;;;;;;;18.29;nan;-24326.41;5071918;28;20258;-56
2022/05/28 03:07:29;;;;;;;11.02;6.35;;;;;;;18.39;nan;-24329.22;5073485;28;20192;-56
2022/05/28 03:09:55;;;;;;;9.60;6.30;;;;;;;18.55;nan;-24333.53;5072701;28;20640;-56
2022/05/28 03:12:20;;;;;;;10.52;6.15;;;;;;;18.75;nan;-24338.97;5074225;28;20185;-56
2022/05/28 03:14:45;;;;;;;10.23;6.13;;;;;;;18.88;nan;-24342.56;5072092;28;20216;-56
2022/05/28 03:17:11;;;;;;;9.77;5.90;;;;;;;19.28;nan;-24353.72;5073294;28;20196;-56
2022/05/28 03:19:36;;;;;;;12.60;6.07;;;;;;;19.15;nan;-24349.94;5072808;28;20185;-56
2022/05/28 03:22:02;;;;;;;12.07;6.00;;;;;;;19.71;nan;-24365.53;5073566;28;20644;-56
2022/05/28 03:24:28;;;;;;;9.10;5.65;;;;;;;19.61;nan;-24362.63;5075467;28;20958;-56
2022/05/28 03:26:57;;;;;;;10.82;5.57;;;;;;;19.80;nan;-24368.03;5074970;28;20200;-56
2022/05/28 03:29:25;;;;;;;9.45;5.88;;;;;;;20.07;nan;-24375.25;5075274;28;20292;-56
2022/05/28 03:31:51;;;;;;;9.13;5.53;;;;;;;20.51;nan;-24387.34;5075514;28;20224;-56
2022/05/28 03:34:17;;;;;;;9.00;5.40;;;;;;;20.93;nan;-24398.88;5073577;28;20180;-57
2022/05/28 03:36:42;;;;;;;10.38;4.93;;;;;;;21.30;nan;-24409.00;5070258;28;20585;-55
2022/05/28 03:39:08;;;;;;;11.43;5.15;;;;;;;21.60;nan;-24417.31;5073209;28;20280;-56
2022/05/28 03:44:55;;;;;;;8.38;4.93;;;;;;;21.92;nan;-24426.16;5073021;28;20562;-55
2022/05/28 03:47:20;;;;;;;8.95;5.60;;;;;;;21.21;nan;-24406.63;5071206;28;20637;-55
2022/05/28 03:49:46;;;;;;;8.25;5.45;;;;;;;22.24;nan;-24434.88;5076457;28;20246;-55
2022/05/28 03:52:14;;;;;;;8.30;5.10;;;;;;;22.74;nan;-24448.59;5073833;28;20551;-57
2022/05/28 03:54:43;;;;;;;8.07;4.90;;;;;;;23.04;nan;-24456.59;5075713;28;20230;-56
2022/05/28 03:57:14;;;;;;;10.18;5.22;;;;;;;23.33;nan;-24464.75;5075677;28;20178;-57
2022/05/28 03:59:41;;;;;;;11.48;5.63;;;;;;;23.65;nan;-24473.31;5072840;28;20184;-57
2022/05/28 04:02:06;;;;;;;10.10;5.65;;;;;;;23.75;nan;-24476.22;5073040;28;20615;-56
2022/05/28 04:04:32;;;;;;;9.75;5.30;;;;;;;23.84;nan;-24478.56;5076276;28;21436;-57
2022/05/28 04:07:01;;;;;;;10.98;5.38;;;;;;;24.29;nan;-24490.72;5075169;28;20185;-57
2022/05/28 04:09:28;;;;;;;8.40;5.35;;;;;;;24.50;nan;-24496.50;5077100;28;20268;-57
2022/05/28 04:11:53;;;;;;;11.45;5.78;;;;;;;24.84;nan;-24505.72;5077403;28;20205;-58
2022/05/28 04:14:19;;;;;;;11.68;5.65;;;;;;;24.58;nan;-24498.84;5075874;28;20186;-56
2022/05/28 04:16:47;;;;;;;9.88;5.88;;;;;;;24.68;nan;-24501.31;5073661;28;20186;-57
2022/05/28 04:19:16;;;;;;;11.50;6.50;;;;;;;25.28;nan;-24517.72;5078888;28;20633;-57
2022/05/28 04:21:41;;;;;;;9.32;6.13;;;;;;;25.43;nan;-24521.97;5076881;28;20235;-57
2022/05/28 04:24:16;;;;;;;9.77;5.93;;;;;;;25.56;nan;-24525.41;5079706;28;20177;-57
2022/05/28 04:26:44;;;;;;;9.07;5.78;;;;;;;25.88;nan;-24534.22;5075206;28;20181;-57
2022/05/28 04:29:10;;;;;;;12.93;6.20;;;;;;;26.09;nan;-24539.84;5073536;28;20178;-57
2022/05/28 04:31:35;;;;;;;8.40;5.55;;;;;;;26.56;nan;-24552.63;5066678;28;20198;-56
2022/05/28 04:34:01;;;;;;;13.27;6.00;;;;;;;27.03;nan;-24565.25;5069391;28;20173;-58
2022/05/28 04:36:27;;;;;;;8.73;5.38;;;;;;;27.81;nan;-24586.50;5063774;28;20196;-56
2022/05/28 04:38:52;;;;;;;9.13;5.72;;;;;;;28.35;nan;-24601.16;5072155;28;20188;-54
2022/05/28 04:41:18;;;;;;;12.45;5.60;;;;;;;28.27;nan;-24598.81;5075221;28;20191;-55
2022/05/28 04:43:43;;;;;;;12.88;5.15;;;;;;;28.38;nan;-24601.84;5072283;28;20173;-55
2022/05/28 04:46:09;;;;;;;10.27;5.50;;;;;;;28.94;nan;-24617.00;5077108;28;20173;-54
2022/05/28 04:48:34;;;;;;;10.73;5.63;;;;;;;28.87;nan;-24615.22;5074453;28;20214;-55
2022/05/28 04:51:00;;;;;;;10.52;5.35;;;;;;;28.60;nan;-24607.72;5074347;28;20679;-54
2022/05/28 04:53:26;;;;;;;7.15;4.97;;;;;;;28.61;nan;-24607.97;5075137;28;20649;-54
2022/05/28 04:55:51;;;;;;;8.77;5.53;;;;;;;28.79;nan;-24612.91;5073189;28;20225;-55
2022/05/28 04:58:18;;;;;;;8.52;5.40;;;;;;;28.50;nan;-24605.13;5069497;28;20181;-55
2022/05/28 05:00:47;;;;;;;9.10;5.07;;;;;;;28.30;nan;-24599.78;5069462;28;20194;-56
2022/05/28 05:03:13;;;;;;;9.18;5.05;;;;;;;28.26;nan;-24598.53;5074212;28;20338;-55
2022/05/28 05:05:39;;;;;;;9.45;5.22;;;;;;;27.72;nan;-24583.91;5075574;28;20193;-55
2022/05/28 05:08:05;;;;;;;7.93;5.00;;;;;;;28.09;nan;-24594.16;5074482;28;20216;-56
2022/05/28 05:10:31;;;;;;;10.93;5.35;;;;;;;28.76;nan;-24612.09;5075265;28;20205;-55
2022/05/28 05:12:58;;;;;;;9.82;5.20;;;;;;;29.02;nan;-24619.06;5075151;28;20747;-53
2022/05/28 05:15:24;;;;;;;8.73;5.00;;;;;;;28.92;nan;-24616.59;5075225;28;20197;-55
2022/05/28 05:17:49;;;;;;;8.65;5.22;;;;;;;29.37;nan;-24628.63;5074637;28;20665;-56
2022/05/28 05:20:15;;;;;;;9.70;5.20;;;;;;;29.51;nan;-24632.31;5074776;28;20185;-55
2022/05/28 05:22:41;;;;;;;6.88;4.60;;;;;;;29.50;nan;-24632.03;5074441;28;20174;-54
2022/05/28 05:25:07;;;;;;;7.28;4.88;;;;;;;29.71;nan;-24637.91;5074152;28;20178;-55
2022/05/28 05:27:33;;;;;;;11.93;4.88;;;;;;;29.48;nan;-24631.50;5073626;28;20174;-55
2022/05/28 05:29:59;;;;;;;7.85;5.15;;;;;;;29.59;nan;-24634.50;5075146;28;20216;-55
2022/05/28 05:32:26;;;;;;;10.07;4.85;;;;;;;29.20;nan;-24624.13;5069871;28;20185;-55
2022/05/28 05:34:52;;;;;;;6.72;4.50;;;;;;;28.88;nan;-24615.38;5074989;28;20174;-55
2022/05/28 05:37:18;;;;;;;11.18;5.43;;;;;;;29.00;nan;-24618.66;5075455;28;20177;-54
2022/05/28 05:39:43;;;;;;;13.85;4.97;;;;;;;27.64;nan;-24581.84;5075347;28;20182;-56
2022/05/28 05:42:10;;;;;;;8.25;5.30;;;;;;;25.85;nan;-24533.38;5074267;28;20676;-55
2022/05/28 05:44:36;;;;;;;11.10;5.72;;;;;;;24.48;nan;-24496.09;5075490;28;20680;-55
2022/05/28 05:47:02;;;;;;;9.65;5.82;;;;;;;24.69;nan;-24501.59;5075555;28;20190;-56
2022/05/28 05:49:27;;;;;;;10.68;5.50;;;;;;;24.79;nan;-24504.47;5069381;28;20210;-55
2022/05/28 05:51:55;;;;;;;8.65;5.65;;;;;;;24.05;nan;-24484.22;5068293;28;20766;-55
2022/05/28 05:54:21;;;;;;;14.30;5.68;;;;;;;24.34;nan;-24492.09;5066503;28;20190;-54
2022/05/28 05:56:46;;;;;;;7.70;4.82;;;;;;;24.52;nan;-24497.19;5075045;28;20185;-55
2022/05/28 05:59:12;;;;;;;9.80;5.68;;;;;;;24.53;nan;-24497.31;5073927;28;20181;-55
2022/05/28 06:01:38;;;;;;;9.48;5.80;;;;;;;25.01;nan;-24510.56;5076018;28;20205;-55
2022/05/28 06:04:04;;;;;;;12.10;5.90;;;;;;;25.15;nan;-24514.28;5078555;28;20178;-55
2022/05/28 06:06:29;;;;;;;9.68;5.78;;;;;;;25.05;nan;-24511.66;5076498;28;20178;-55
2022/05/28 06:08:55;;;;;;;6.90;5.00;;;;;;;25.24;nan;-24516.59;5075913;28;20695;-55
2022/05/28 06:11:20;;;;;;;11.00;5.75;;;;;;;23.68;nan;-24474.16;5075742;28;20216;-56
2022/05/28 06:13:46;;;;;;;9.18;5.30;;;;;;;24.45;nan;-24495.25;5077164;28;20196;-55
2022/05/28 06:16:11;;;;;;;11.18;5.90;;;;;;;25.23;nan;-24516.47;5077651;28;20178;-54
2022/05/28 06:18:37;;;;;;;7.72;5.00;;;;;;;25.33;nan;-24519.09;5076621;28;20288;-54
2022/05/28 06:21:02;;;;;;;11.25;5.53;;;;;;;25.05;nan;-24511.50;5076173;28;20637;-54
2022/05/28 06:23:28;;;;;;;9.18;5.65;;;;;;;24.52;nan;-24497.19;5073340;28;20182;-56
2022/05/28 06:25:54;;;;;;;9.15;5.32;;;;;;;24.91;nan;-24507.78;5073623;28;20188;-55
2022/05/28 06:28:21;;;;;;;8.02;5.13;;;;;;;25.68;nan;-24528.72;5071128;28;20186;-55
2022/05/28 06:30:49;;;;;;;9.85;5.40;;;;;;;24.09;nan;-24485.31;5070681;28;20645;-56
2022/05/28 06:33:15;;;;;;;12.52;5.78;;;;;;;26.80;nan;-24559.22;5070524;28;20227;-56
2022/05/28 06:35:41;;;;;;;9.70;5.70;;;;;;;27.34;nan;-24573.75;5072757;28;20657;-56
2022/05/28 06:38:08;;;;;;;9.82;4.85;;;;;;;28.28;nan;-24599.09;5068469;28;20196;-56
2022/05/28 06:40:35;;;;;;;7.03;4.95;;;;;;;28.07;nan;-24593.47;5069135;28;20543;-56
2022/05/28 06:43:00;;;;;;;6.47;4.63;;;;;;;27.79;nan;-24585.81;5070644;28;20243;-55
2022/05/28 06:45:26;;;;;;;10.85;5.28;;;;;;;28.16;nan;-24595.81;5070815;28;20186;-55
2022/05/28 06:47:51;;;;;;;8.57;4.78;;;;;;;28.08;nan;-24593.88;5070230;28;20244;-55
2022/05/28 06:53:03;;;;;;;7.82;5.28;;;;;;;28.51;nan;-24605.53;5076324;28;20263;-55
2022/05/28 06:55:29;;;;;;;10.70;5.15;;;;;;;28.68;nan;-24610.03;5077241;28;20257;-54
2022/05/28 06:57:55;;;;;;;6.35;4.40;;;;;;;28.29;nan;-24599.50;5074893;28;20212;-55
2022/05/28 07:00:20;;;;;;;10.10;5.53;;;;;;;27.50;nan;-24578.00;5076484;28;20227;-54
2022/05/28 07:02:47;;;;;;;7.95;5.00;;;;;;;27.85;nan;-24587.44;5074994;28;20950;-55
2022/05/28 07:05:15;;;;;;;8.00;4.90;;;;;;;27.80;nan;-24586.09;5074180;28;20739;-55
2022/05/28 07:07:41;;;;;;;5.97;4.13;;;;;;;27.84;nan;-24587.19;5076229;28;20213;-56
2022/05/28 07:10:07;;;;;;;8.75;5.53;;;;;;;27.36;nan;-24574.16;5076374;28;20202;-56
2022/05/28 07:12:33;;;;;;;7.38;5.28;;;;;;;27.45;nan;-24576.78;5072895;28;20667;-56
2022/05/28 07:14:59;;;;;;;9.57;5.85;;;;;;;27.18;nan;-24569.38;5072201;28;20170;-55
2022/05/28 07:17:24;;;;;;;7.90;5.30;;;;;;;27.57;nan;-24579.91;5073812;28;20193;-55
2022/05/28 07:19:50;;;;;;;9.02;5.03;;;;;;;26.00;nan;-24537.38;5075197;28;20181;-55
2022/05/28 07:22:16;;;;;;;6.40;5.07;;;;;;;28.09;nan;-24594.16;5075172;28;20716;-55
2022/05/28 07:24:42;;;;;;;9.43;4.95;;;;;;;28.60;nan;-24607.84;5076793;28;20182;-55
2022/05/28 07:27:08;;;;;;;9.27;5.13;;;;;;;28.74;nan;-24611.69;5074553;28;20214;-55
2022/05/28 07:29:33;;;;;;;8.07;5.43;;;;;;;29.16;nan;-24622.88;5077928;28;20216;-55
2022/05/28 07:31:58;;;;;;;8.15;5.00;;;;;;;29.48;nan;-24631.63;5076875;28;20201;-55
2022/05/28 07:34:24;;;;;;;7.30;4.75;;;;;;;30.07;nan;-24647.44;5076556;28;20201;-54
2022/05/28 07:36:50;;;;;;;9.93;4.85;;;;;;;30.07;nan;-24647.59;5078730;28;20188;-55
2022/05/28 07:39:16;;;;;;;7.57;4.75;;;;;;;29.71;nan;-24637.91;5076521;28;20182;-55
2022/05/28 07:41:41;;;;;;;8.68;4.43;;;;;;;29.72;nan;-24638.19;5075569;28;20181;-54
2022/05/28 07:44:07;;;;;;;6.65;4.60;;;;;;;29.71;nan;-24637.91;5076851;28;20185;-54
2022/05/28 07:46:33;;;;;;;7.93;5.13;;;;;;;29.92;nan;-24643.50;5076224;28;20185;-56
2022/05/28 07:49:00;;;;;;;9.80;5.00;;;;;;;30.13;nan;-24649.22;5074323;28;20847;-54
2022/05/28 07:51:26;;;;;;;7.72;4.40;;;;;;;29.59;nan;-24634.50;5072767;28;20209;-56
2022/05/28 07:53:53;;;;;;;7.38;4.78;;;;;;;29.98;nan;-24645.00;5072895;28;20217;-54
2022/05/28 07:56:19;;;;;;;5.97;4.28;;;;;;;30.37;nan;-24655.50;5077513;28;20300;-55
2022/05/28 07:58:44;;;;;;;6.22;4.68;;;;;;;30.28;nan;-24653.19;5073936;28;20182;-55
2022/05/28 08:01:24;;;;;;;6.45;4.65;;;;;;;30.27;nan;-24652.91;5075843;28;20192;-55
2022/05/28 08:03:50;;;;;;;8.27;4.47;;;;;;;30.93;nan;-24670.75;5074271;28;20177;-55
2022/05/28 08:06:16;;;;;;;8.60;4.50;;;;;;;30.98;nan;-24671.97;5073007;28;20230;-55
2022/05/28 08:08:42;;;;;;;6.63;4.50;;;;;;;31.19;nan;-24677.69;5075694;28;20180;-55
2022/05/28 08:11:08;;;;;;;8.20;4.57;;;;;;;31.49;nan;-24685.72;5072995;28;20663;-54
2022/05/28 08:13:35;;;;;;;6.65;4.63;;;;;;;31.37;nan;-24682.59;5075257;28;20181;-54
2022/05/28 08:16:01;;;;;;;11.90;5.80;;;;;;;31.76;nan;-24692.94;5071238;28;20973;-54
2022/05/28 08:18:27;;;;;;;9.32;4.75;;;;;;;32.06;nan;-24700.94;5074184;28;21275;-55
2022/05/28 08:23:40;;;;;;;10.98;5.72;;;;;;;32.16;nan;-24703.78;5072995;28;20238;-54
2022/05/28 08:26:06;;;;;;;10.80;5.70;;;;;;;32.50;nan;-24712.88;5075654;28;20215;-54
2022/05/28 08:28:32;;;;;;;8.70;5.15;;;;;;;32.51;nan;-24713.03;5075953;28;20237;-54
2022/05/28 08:30:57;;;;;;;8.10;5.22;;;;;;;32.45;nan;-24711.53;5074710;28;20228;-54
2022/05/28 08:33:22;;;;;;;9.00;5.53;;;;;;;32.52;nan;-24713.44;5074798;28;20191;-55
2022/05/28 08:35:50;;;;;;;9.00;6.00;;;;;;;32.71;nan;-24718.44;5074514;28;20238;-55
2022/05/28 08:38:20;;;;;;;12.73;6.72;;;;;;;29.89;nan;-24642.69;5072040;28;20716;-54
2022/05/28 08:41:04;;;;;;;9.30;5.13;;;;;;;31.79;nan;-24693.75;5073217;28;20193;-55
2022/05/28 08:43:33;;;;;;;7.63;4.88;;;;;;;30.88;nan;-24669.38;5073401;28;20577;-55
2022/05/28 08:45:59;;;;;;;8.65;4.95;;;;;;;30.15;nan;-24649.78;5074453;28;20196;-55
2022/05/28 08:48:45;;;;;;;10.77;4.65;;;;;;;30.14;nan;-24649.38;5075854;28;20374;-55
2022/05/28 08:52:21;;;;;;;7.63;4.35;;;;;;;29.45;nan;-24630.66;5073228;28;20252;-55
2022/05/28 08:54:59;;;;;;;6.35;4.47;;;;;;;29.24;nan;-24625.06;4982689;28;20262;-55
2022/05/28 08:58:00;;;;;;;7.68;3.90;;;;;;;29.56;nan;-24633.66;4994199;28;20183;-55
2022/05/28 09:00:54;;;;;;;9.27;4.50;;;;;;;29.63;nan;-24635.72;5056681;28;20208;-55
2022/05/28 09:03:27;;;;;;;6.38;4.47;;;;;;;29.59;nan;-24634.50;5070579;28;20223;-56
2022/05/28 09:06:05;;;;;;;6.00;4.40;;;;;;;29.17;nan;-24623.16;5105444;28;20634;-55
2022/05/28 09:08:40;;;;;;;8.82;4.43;;;;;;;28.83;nan;-24614.13;5073843;28;20173;-55
2022/05/28 09:11:13;;;;;;;6.55;4.35;;;;;;;28.54;nan;-24606.22;5075119;28;20235;-54
2022/05/28 09:13:43;;;;;;;8.60;5.88;;;;;;;28.70;nan;-24610.59;5074502;28;20914;-54
2022/05/28 09:16:32;;;;;;;10.52;6.03;;;;;;;27.75;nan;-24584.72;5074430;28;20201;-54
2022/05/28 09:19:02;;;;;;;9.20;5.72;;;;;;;27.85;nan;-24587.44;5072236;28;20240;-54
2022/05/28 09:21:27;;;;;;;12.60;5.50;;;;;;;27.83;nan;-24586.91;5072361;28;20200;-55
2022/05/28 09:24:00;;;;;;;12.30;6.35;;;;;;;27.86;nan;-24587.88;5075536;28;20641;-55
2022/05/28 09:26:42;;;;;;;9.27;6.22;;;;;;;27.76;nan;-24585.00;5073048;28;20269;-55
2022/05/28 09:29:41;;;;;;;8.10;5.28;;;;;;;28.24;nan;-24598.00;5069705;28;20181;-57
2022/05/28 09:32:28;;;;;;;9.50;5.90;;;;;;;27.60;nan;-24580.88;5074449;28;20209;-54
2022/05/28 09:34:56;;;;;;;12.45;6.07;;;;;;;27.47;nan;-24577.19;5075681;28;20186;-55
2022/05/28 09:37:30;;;;;;;10.02;5.70;;;;;;;26.90;nan;-24561.69;5074563;28;20182;-55
2022/05/28 09:40:22;;;;;;;11.00;5.50;;;;;;;26.74;nan;-24557.44;5076695;28;20192;-54
2022/05/28 09:43:18;;;;;;;9.82;5.72;;;;;;;26.71;nan;-24556.75;5073188;28;20173;-55
2022/05/28 09:46:10;;;;;;;8.98;5.50;;;;;;;26.84;nan;-24560.16;5077180;28;20208;-55
2022/05/28 09:48:36;;;;;;;7.03;4.85;;;;;;;26.86;nan;-24560.59;5074952;28;20170;-55
2022/05/28 09:51:02;;;;;;;9.43;5.60;;;;;;;26.52;nan;-24551.38;5076099;28;20754;-56
2022/05/28 09:56:36;;;;;;;8.60;5.30;;;;;;;26.63;nan;-24554.53;5076297;28;20236;-54
2022/05/28 09:59:16;;;;;;;9.20;4.68;;;;;;;27.01;nan;-24564.84;5076556;28;20193;-55
2022/05/28 10:01:55;;;;;;;6.65;4.80;;;;;;;27.09;nan;-24567.03;5074885;28;20231;-55
2022/05/28 10:04:30;;;;;;;7.70;4.90;;;;;;;26.79;nan;-24558.94;5076829;28;20213;-55
2022/05/28 10:07:02;;;;;;;8.77;4.40;;;;;;;26.75;nan;-24557.69;5067012;28;20185;-55
2022/05/28 10:09:33;;;;;;;13.98;5.20;;;;;;;26.91;nan;-24562.09;5074238;28;20268;-55
2022/05/28 10:12:15;;;;;;;8.65;4.78;;;;;;;26.18;nan;-24542.31;5076217;28;20296;-55
2022/05/28 10:14:41;;;;;;;7.38;4.70;;;;;;;26.52;nan;-24551.53;5079293;28;20177;-57
2022/05/28 10:17:07;;;;;;;8.27;4.45;;;;;;;26.66;nan;-24555.22;5072545;28;20210;-55
2022/05/28 10:19:40;;;;;;;8.35;4.40;;;;;;;27.04;nan;-24565.66;5075628;28;20182;-55
2022/05/28 10:22:14;;;;;;;11.90;5.00;;;;;;;27.20;nan;-24569.91;5074341;28;20189;-55
2022/05/28 10:24:45;;;;;;;7.47;4.90;;;;;;;26.98;nan;-24564.00;5076492;28;20174;-56
2022/05/28 10:27:34;;;;;;;9.63;4.82;;;;;;;26.76;nan;-24558.13;5075868;28;20182;-77
2022/05/28 10:30:05;;;;;;;8.48;5.60;;;;;;;26.47;nan;-24550.00;5074648;28;20189;-76
2022/05/28 10:32:46;;;;;;;6.90;4.68;;;;;;;26.61;nan;-24554.00;5074428;28;20284;-78
2022/05/28 10:35:15;;;;;;;8.63;4.82;;;;;;;26.26;nan;-24544.53;5073099;28;20261;-75
2022/05/28 10:37:41;;;;;;;5.75;4.43;;;;;;;26.03;nan;-24538.19;5074901;28;20182;-76
2022/05/28 10:40:12;;;;;;;10.10;4.97;;;;;;;25.92;nan;-24535.31;5081065;28;20238;-79
2022/05/28 10:42:38;;;;;;;6.22;4.72;;;;;;;25.64;nan;-24527.47;5076096;28;20174;-76
2022/05/28 10:45:07;;;;;;;9.93;4.43;;;;;;;25.84;nan;-24533.13;5077751;28;20269;-77
2022/05/28 10:47:59;;;;;;;8.00;4.60;;;;;;;25.72;nan;-24529.69;5074309;28;20174;-76
2022/05/28 10:50:39;;;;;;;7.32;5.13;;;;;;;25.64;nan;-24527.63;5080626;28;20247;-75
2022/05/28 10:53:20;;;;;;;8.23;4.90;;;;;;;25.97;nan;-24536.56;5067488;28;20279;-74
2022/05/28 10:55:48;;;;;;;9.77;4.57;;;;;;;25.77;nan;-24531.06;5078122;28;20332;-78
2022/05/28 10:58:23;;;;;;;7.35;4.55;;;;;;;25.78;nan;-24531.31;5074239;28;20177;-76
2022/05/28 11:00:57;;;;;;;7.20;4.60;;;;;;;25.91;nan;-24534.91;5075306;28;20220;-76
2022/05/28 11:03:55;;;;;;;7.30;5.15;;;;;;;25.98;nan;-24536.69;5072479;28;20677;-78
2022/05/28 11:06:55;;;;;;;7.00;4.97;;;;;;;25.85;nan;-24533.38;5066773;28;20206;-77
2022/05/28 11:09:51;;;;;;;8.65;4.68;;;;;;;26.18;nan;-24542.31;5074017;28;20201;-75
2022/05/28 11:12:54;;;;;;;9.07;4.95;;;;;;;25.62;nan;-24527.06;5074943;28;20338;-77
2022/05/28 11:15:41;;;;;;;6.78;4.53;;;;;;;25.64;nan;-24527.47;5072973;28;20181;-78
2022/05/28 11:18:42;;;;;;;8.05;5.18;;;;;;;25.42;nan;-24521.69;5057411;28;20189;-75
2022/05/28 11:21:14;;;;;;;6.85;4.80;;;;;;;25.35;nan;-24519.63;5076589;28;20181;-75
2022/05/28 11:24:01;;;;;;;9.27;5.20;;;;;;;25.38;nan;-24520.59;5075099;28;20189;-76
2022/05/28 11:26:39;;;;;;;7.45;5.03;;;;;;;25.42;nan;-24521.69;5069889;28;20936;-76
2022/05/28 11:29:07;;;;;;;7.05;4.70;;;;;;;25.58;nan;-24525.81;5076793;28;20208;-78
2022/05/28 11:31:50;;;;;;;8.98;5.57;;;;;;;25.62;nan;-24526.94;5073592;28;20209;-75
2022/05/28 11:34:26;;;;;;;7.38;5.43;;;;;;;25.72;nan;-24529.69;5077014;28;20667;-75
2022/05/28 11:37:02;;;;;;;10.57;5.15;;;;;;;25.78;nan;-24531.31;5076621;28;20230;-74
2022/05/28 11:39:37;;;;;;;10.32;4.80;;;;;;;25.97;nan;-24536.56;5071138;28;20724;-74
2022/05/28 11:42:20;;;;;;;8.25;4.78;;;;;;;26.06;nan;-24538.88;5070006;28;20209;-76
2022/05/28 11:44:54;;;;;;;11.20;4.70;;;;;;;25.75;nan;-24530.50;5075626;28;20464;-74
2022/05/28 11:47:40;;;;;;;7.20;4.65;;;;;;;26.11;nan;-24540.25;5074085;28;20220;-76
2022/05/28 11:53:27;;;;;;;7.60;4.90;;;;;;;26.21;nan;-24543.16;5072706;28;20295;-75
2022/05/28 11:55:58;;;;;;;7.82;5.32;;;;;;;25.96;nan;-24536.28;5077108;28;20232;-74
2022/05/28 11:58:30;;;;;;;9.43;5.60;;;;;;;26.01;nan;-24537.50;5076231;28;20209;-74
2022/05/28 12:01:00;;;;;;;11.00;4.90;;;;;;;26.09;nan;-24539.84;5105242;27;20675;-75
2022/05/28 12:03:30;;;;;;;6.30;5.10;;;;;;;26.07;nan;-24539.31;5077178;28;20296;-74
2022/05/28 12:06:07;;;;;;;10.43;5.65;;;;;;;25.51;nan;-24524.03;5074417;28;20204;-74
2022/05/28 12:08:47;;;;;;;9.63;5.90;;;;;;;25.47;nan;-24522.94;5075653;28;20187;-75
2022/05/28 12:11:30;;;;;;;10.25;5.45;;;;;;;25.82;nan;-24532.44;5076104;28;20201;-75